sensor_id;sensor_type;location;lat;lon;timestamp;pressure;altitude;pressure_sealevel;temperature;humidity
54042;BME280;41156;51.508;5.406;2024-01-30T00:02:12;102507.66;;;7.20;100.00
54042;BME280;41156;51.508;5.406;2024-01-30T00:05:12;102503.31;;;7.19;100.00
54042;BME280;41156;51.508;5.406;2024-01-30T00:08:13;102502.44;;;7.19;100.00
54042;BME280;41156;51.508;5.406;2024-01-30T00:11:13;102501.06;;;7.15;100.00
54042;BME280;41156;51.508;5.406;2024-01-30T00:14:13;102509.28;;;7.13;100.00
54042;BME280;41156;51.508;5.406;2024-01-30T00:17:14;102502.88;;;7.14;100.00
54042;BME280;41156;51.508;5.406;2024-01-30T00:20:14;102501.06;;;7.15;100.00
54042;BME280;41156;51.508;5.406;2024-01-30T00:23:15;102504.75;;;7.14;100.00
54042;BME280;41156;51.508;5.406;2024-01-30T00:26:15;102498.53;;;7.13;100.00
54042;BME280;41156;51.508;5.406;2024-01-30T00:29:15;102498.69;;;7.12;100.00
54042;BME280;41156;51.508;5.406;2024-01-30T00:32:19;102497.13;;;7.09;100.00
54042;BME280;41156;51.508;5.406;2024-01-30T00:35:19;102490.22;;;7.07;100.00
54042;BME280;41156;51.508;5.406;2024-01-30T00:38:22;102493.34;;;7.02;100.00
54042;BME280;41156;51.508;5.406;2024-01-30T00:41:22;102488.28;;;6.99;100.00
54042;BME280;41156;51.508;5.406;2024-01-30T00:44:23;102490.13;;;6.98;100.00
54042;BME280;41156;51.508;5.406;2024-01-30T00:47:23;102492.81;;;6.98;100.00
54042;BME280;41156;51.508;5.406;2024-01-30T00:50:23;102490.13;;;6.98;100.00
54042;BME280;41156;51.508;5.406;2024-01-30T00:53:23;102488.44;;;6.97;100.00
54042;BME280;41156;51.508;5.406;2024-01-30T00:56:24;102486.03;;;6.94;100.00
54042;BME280;41156;51.508;5.406;2024-01-30T00:59:24;102480.66;;;6.94;100.00
54042;BME280;41156;51.508;5.406;2024-01-30T01:02:25;102483.34;;;6.94;100.00
54042;BME280;41156;51.508;5.406;2024-01-30T01:05:25;102480.66;;;6.94;100.00
54042;BME280;41156;51.508;5.406;2024-01-30T01:08:25;102482.38;;;6.95;100.00
54042;BME280;41156;51.508;5.406;2024-01-30T01:11:26;102480.66;;;6.94;100.00
54042;BME280;41156;51.508;5.406;2024-01-30T01:14:27;102477.81;;;6.96;100.00
54042;BME280;41156;51.508;5.406;2024-01-30T01:17:27;102481.53;;;6.95;100.00
54042;BME280;41156;51.508;5.406;2024-01-30T01:20:27;102475.38;;;7.02;100.00
54042;BME280;41156;51.508;5.406;2024-01-30T01:23:27;102477.69;;;6.97;100.00
54042;BME280;41156;51.508;5.406;2024-01-30T01:26:28;102474.00;;;6.98;100.00
54042;BME280;41156;51.508;5.406;2024-01-30T01:29:28;102470.00;;;7.02;100.00
54042;BME280;41156;51.508;5.406;2024-01-30T01:32:29;102473.56;;;7.03;100.00
54042;BME280;41156;51.508;5.406;2024-01-30T01:35:29;102475.94;;;7.06;100.00
54042;BME280;41156;51.508;5.406;2024-01-30T01:38:29;102466.56;;;7.10;100.00
54042;BME280;41156;51.508;5.406;2024-01-30T01:41:30;102465.44;;;7.13;100.00
54042;BME280;41156;51.508;5.406;2024-01-30T01:44:32;102469.50;;;7.17;100.00
54042;BME280;41156;51.508;5.406;2024-01-30T01:47:32;102465.72;;;7.28;100.00
54042;BME280;41156;51.508;5.406;2024-01-30T01:50:32;102461.88;;;7.30;100.00
54042;BME280;41156;51.508;5.406;2024-01-30T01:53:32;102451.81;;;7.32;100.00
54042;BME280;41156;51.508;5.406;2024-01-30T01:56:33;102445.44;;;7.33;100.00
54042;BME280;41156;51.508;5.406;2024-01-30T01:59:34;102456.06;;;7.35;100.00
54042;BME280;41156;51.508;5.406;2024-01-30T02:02:36;102451.06;;;7.40;100.00
54042;BME280;41156;51.508;5.406;2024-01-30T02:05:36;102448.22;;;7.41;100.00
54042;BME280;41156;51.508;5.406;2024-01-30T02:08:37;102440.84;;;7.44;100.00
54042;BME280;41156;51.508;5.406;2024-01-30T02:11:37;102442.75;;;7.33;100.00
54042;BME280;41156;51.508;5.406;2024-01-30T02:14:45;102437.69;;;7.30;100.00
54042;BME280;41156;51.508;5.406;2024-01-30T02:17:46;102433.44;;;7.28;100.00
54042;BME280;41156;51.508;5.406;2024-01-30T02:20:46;102443.06;;;7.30;100.00
54042;BME280;41156;51.508;5.406;2024-01-30T02:23:48;102450.84;;;7.33;100.00
54042;BME280;41156;51.508;5.406;2024-01-30T02:26:49;102439.94;;;7.35;100.00
54042;BME280;41156;51.508;5.406;2024-01-30T02:29:49;102441.94;;;7.33;100.00
54042;BME280;41156;51.508;5.406;2024-01-30T02:32:49;102443.75;;;7.32;100.00
54042;BME280;41156;51.508;5.406;2024-01-30T02:35:50;102443.91;;;7.31;100.00
54042;BME280;41156;51.508;5.406;2024-01-30T02:38:50;102436.69;;;7.31;100.00
54042;BME280;41156;51.508;5.406;2024-01-30T02:41:50;102431.31;;;7.31;100.00
54042;BME280;41156;51.508;5.406;2024-01-30T02:44:50;102437.69;;;7.30;100.00
54042;BME280;41156;51.508;5.406;2024-01-30T02:47:51;102437.84;;;7.29;100.00
54042;BME280;41156;51.508;5.406;2024-01-30T02:50:51;102431.78;;;7.27;100.00
54042;BME280;41156;51.508;5.406;2024-01-30T02:53:51;102436.31;;;7.26;100.00
54042;BME280;41156;51.508;5.406;2024-01-30T02:56:52;102430.06;;;7.26;100.00
54042;BME280;41156;51.508;5.406;2024-01-30T02:59:52;102430.06;;;7.26;100.00
54042;BME280;41156;51.508;5.406;2024-01-30T03:02:52;102430.75;;;7.28;100.00
54042;BME280;41156;51.508;5.406;2024-01-30T03:05:52;102428.94;;;7.28;100.00
54042;BME280;41156;51.508;5.406;2024-01-30T03:08:53;102427.09;;;7.29;100.00
54042;BME280;41156;51.508;5.406;2024-01-30T03:11:53;102421.72;;;7.29;100.00
54042;BME280;41156;51.508;5.406;2024-01-30T03:14:53;102407.44;;;7.28;100.00
54042;BME280;41156;51.508;5.406;2024-01-30T03:17:54;102398.19;;;7.31;100.00
54042;BME280;41156;51.508;5.406;2024-01-30T03:20:54;102407.13;;;7.31;100.00
54042;BME280;41156;51.508;5.406;2024-01-30T03:23:54;102399.75;;;7.33;100.00
54042;BME280;41156;51.508;5.406;2024-01-30T03:26:54;102400.56;;;7.34;100.00
54042;BME280;41156;51.508;5.406;2024-01-30T03:29:55;102399.59;;;7.35;100.00
54042;BME280;41156;51.508;5.406;2024-01-30T03:32:55;102399.59;;;7.35;100.00
54042;BME280;41156;51.508;5.406;2024-01-30T03:35:55;102389.81;;;7.34;100.00
54042;BME280;41156;51.508;5.406;2024-01-30T03:38:55;102389.81;;;7.34;100.00
54042;BME280;41156;51.508;5.406;2024-01-30T03:41:56;102393.53;;;7.33;100.00
54042;BME280;41156;51.508;5.406;2024-01-30T03:44:56;102401.41;;;7.34;100.00
54042;BME280;41156;51.508;5.406;2024-01-30T03:47:56;102408.50;;;7.35;100.00
54042;BME280;41156;51.508;5.406;2024-01-30T03:50:57;102399.59;;;7.35;100.00
54042;BME280;41156;51.508;5.406;2024-01-30T03:53:57;102405.78;;;7.35;100.00
54042;BME280;41156;51.508;5.406;2024-01-30T03:56:57;102401.41;;;7.34;100.00
54042;BME280;41156;51.508;5.406;2024-01-30T03:59:58;102402.13;;;7.36;100.00
54042;BME280;41156;51.508;5.406;2024-01-30T04:02:58;102405.34;;;7.40;100.00
54042;BME280;41156;51.508;5.406;2024-01-30T04:05:58;102409.88;;;7.39;100.00
54042;BME280;41156;51.508;5.406;2024-01-30T04:08:59;102404.16;;;7.43;100.00
54042;BME280;41156;51.508;5.406;2024-01-30T04:11:59;102403.84;;;7.46;100.00
54042;BME280;41156;51.508;5.406;2024-01-30T04:14:59;102408.09;;;7.48;100.00
54042;BME280;41156;51.508;5.406;2024-01-30T04:18:00;102397.19;;;7.50;100.00
54042;BME280;41156;51.508;5.406;2024-01-30T04:21:00;102399.72;;;7.51;100.00
54042;BME280;41156;51.508;5.406;2024-01-30T04:24:00;102395.53;;;7.57;100.00
54042;BME280;41156;51.508;5.406;2024-01-30T04:27:01;102389.69;;;7.62;100.00
54042;BME280;41156;51.508;5.406;2024-01-30T04:30:01;102387.38;;;7.67;100.00
54042;BME280;41156;51.508;5.406;2024-01-30T04:33:01;102387.91;;;7.70;100.00
54042;BME280;41156;51.508;5.406;2024-01-30T04:36:02;102385.88;;;7.72;100.00
54042;BME280;41156;51.508;5.406;2024-01-30T04:39:03;102380.34;;;7.74;100.00
54042;BME280;41156;51.508;5.406;2024-01-30T04:42:04;102374.34;;;7.80;100.00
54042;BME280;41156;51.508;5.406;2024-01-30T04:45:05;102375.53;;;7.86;100.00
54042;BME280;41156;51.508;5.406;2024-01-30T04:48:06;102365.50;;;7.88;100.00
54042;BME280;41156;51.508;5.406;2024-01-30T04:51:06;102353.53;;;7.90;100.00
54042;BME280;41156;51.508;5.406;2024-01-30T04:54:06;102356.59;;;7.95;100.00
54042;BME280;41156;51.508;5.406;2024-01-30T04:57:07;102360.31;;;7.94;100.00
54042;BME280;41156;51.508;5.406;2024-01-30T05:00:09;102364.50;;;7.97;100.00
54042;BME280;41156;51.508;5.406;2024-01-30T05:03:10;102369.72;;;7.99;100.00
54042;BME280;41156;51.508;5.406;2024-01-30T05:06:10;102360.97;;;7.96;100.00
54042;BME280;41156;51.508;5.406;2024-01-30T05:09:10;102369.91;;;7.97;100.00
54042;BME280;41156;51.508;5.406;2024-01-30T05:12:11;102374.44;;;7.96;100.00
54042;BME280;41156;51.508;5.406;2024-01-30T05:15:11;102375.59;;;7.94;100.00
54042;BME280;41156;51.508;5.406;2024-01-30T05:18:12;102370.38;;;7.92;100.00
54042;BME280;41156;51.508;5.406;2024-01-30T05:21:12;102376.94;;;7.90;100.00
54042;BME280;41156;51.508;5.406;2024-01-30T05:24:12;102369.84;;;7.89;100.00
54042;BME280;41156;51.508;5.406;2024-01-30T05:27:13;102370.00;;;7.87;100.00
54042;BME280;41156;51.508;5.406;2024-01-30T05:30:15;102370.72;;;7.89;100.00
54042;BME280;41156;51.508;5.406;2024-01-30T05:33:16;102363.16;;;7.93;100.00
54042;BME280;41156;51.508;5.406;2024-01-30T05:36:16;102366.38;;;7.96;100.00
54042;BME280;41156;51.508;5.406;2024-01-30T05:39:17;102365.03;;;8.01;100.00
54042;BME280;41156;51.508;5.406;2024-01-30T05:42:17;102368.59;;;8.01;100.00
54042;BME280;41156;51.508;5.406;2024-01-30T05:45:17;102361.19;;;8.03;100.00
54042;BME280;41156;51.508;5.406;2024-01-30T05:48:18;102362.03;;;8.04;100.00
54042;BME280;41156;51.508;5.406;2024-01-30T05:51:18;102374.50;;;8.05;100.00
54042;BME280;41156;51.508;5.406;2024-01-30T05:54:18;102364.56;;;8.05;100.00
54042;BME280;41156;51.508;5.406;2024-01-30T05:57:19;102362.91;;;8.12;100.00
54042;BME280;41156;51.508;5.406;2024-01-30T06:00:19;102367.81;;;8.17;100.00
54042;BME280;41156;51.508;5.406;2024-01-30T06:03:19;102370.19;;;8.20;100.00
54042;BME280;41156;51.508;5.406;2024-01-30T06:06:19;102365.63;;;8.21;100.00
54042;BME280;41156;51.508;5.406;2024-01-30T06:09:20;102367.16;;;8.23;100.00
54042;BME280;41156;51.508;5.406;2024-01-30T06:12:20;102375.91;;;8.25;100.00
54042;BME280;41156;51.508;5.406;2024-01-30T06:15:20;102366.13;;;8.24;100.00
54042;BME280;41156;51.508;5.406;2024-01-30T06:18:21;102370.53;;;8.25;100.00
54042;BME280;41156;51.508;5.406;2024-01-30T06:21:21;102379.44;;;8.26;100.00
54042;BME280;41156;51.508;5.406;2024-01-30T06:24:21;102378.44;;;8.27;100.00
54042;BME280;41156;51.508;5.406;2024-01-30T06:27:22;102377.47;;;8.28;100.00
54042;BME280;41156;51.508;5.406;2024-01-30T06:30:22;102380.66;;;8.31;100.00
54042;BME280;41156;51.508;5.406;2024-01-30T06:33:22;102381.66;;;8.30;100.00
54042;BME280;41156;51.508;5.406;2024-01-30T06:36:23;102388.75;;;8.31;100.00
54042;BME280;41156;51.508;5.406;2024-01-30T06:39:23;102390.97;;;8.36;100.00
54042;BME280;41156;51.508;5.406;2024-01-30T06:42:23;102395.47;;;8.36;100.00
54042;BME280;41156;51.508;5.406;2024-01-30T06:45:24;102390.59;;;8.39;100.00
54042;BME280;41156;51.508;5.406;2024-01-30T06:48:24;102390.28;;;8.42;100.00
54042;BME280;41156;51.508;5.406;2024-01-30T06:51:24;102397.41;;;8.43;100.00
54042;BME280;41156;51.508;5.406;2024-01-30T06:54:24;102390.84;;;8.46;100.00
54042;BME280;41156;51.508;5.406;2024-01-30T06:57:25;102398.75;;;8.47;100.00
54042;BME280;41156;51.508;5.406;2024-01-30T07:00:28;102412.94;;;8.49;100.00
54042;BME280;41156;51.508;5.406;2024-01-30T07:03:28;102422.69;;;8.50;100.00
54042;BME280;41156;51.508;5.406;2024-01-30T07:06:28;102422.84;;;8.49;100.00
54042;BME280;41156;51.508;5.406;2024-01-30T07:09:29;102420.84;;;8.51;100.00
54042;BME280;41156;51.508;5.406;2024-01-30T07:12:30;102425.53;;;8.49;100.00
54042;BME280;41156;51.508;5.406;2024-01-30T07:15:31;102434.47;;;8.49;100.00
54042;BME280;41156;51.508;5.406;2024-01-30T07:18:31;102441.19;;;8.45;100.00
54042;BME280;41156;51.508;5.406;2024-01-30T07:21:31;102428.22;;;8.49;100.00
54042;BME280;41156;51.508;5.406;2024-01-30T07:24:32;102433.47;;;8.50;100.00
54042;BME280;41156;51.508;5.406;2024-01-30T07:27:32;102440.22;;;8.55;100.00
54042;BME280;41156;51.508;5.406;2024-01-30T07:30:32;102445.78;;;8.53;100.00
54042;BME280;41156;51.508;5.406;2024-01-30T07:33:33;102442.75;;;8.56;100.00
54042;BME280;41156;51.508;5.406;2024-01-30T07:36:33;102451.53;;;8.58;100.00
54042;BME280;41156;51.508;5.406;2024-01-30T07:39:33;102448.66;;;8.60;100.00
54042;BME280;41156;51.508;5.406;2024-01-30T07:42:34;102448.81;;;8.58;100.00
54042;BME280;41156;51.508;5.406;2024-01-30T07:45:35;102456.06;;;8.58;100.00
54042;BME280;41156;51.508;5.406;2024-01-30T07:48:37;102459.44;;;8.60;100.00
54042;BME280;41156;51.508;5.406;2024-01-30T07:51:37;102456.44;;;8.63;100.00
54042;BME280;41156;51.508;5.406;2024-01-30T07:54:51;102458.09;;;8.64;100.00
54042;BME280;41156;51.508;5.406;2024-01-30T07:57:52;102461.47;;;8.66;100.00
54042;BME280;41156;51.508;5.406;2024-01-30T08:00:52;102474.63;;;8.69;100.00
54042;BME280;41156;51.508;5.406;2024-01-30T08:03:53;102473.63;;;8.70;100.00
54042;BME280;41156;51.508;5.406;2024-01-30T08:06:53;102475.13;;;8.73;100.00
54042;BME280;41156;51.508;5.406;2024-01-30T08:09:54;102477.03;;;8.80;100.00
54042;BME280;41156;51.508;5.406;2024-01-30T08:12:54;102485.97;;;8.89;100.00
54042;BME280;41156;51.508;5.406;2024-01-30T08:15:54;102478.75;;;8.89;100.00
54042;BME280;41156;51.508;5.406;2024-01-30T08:18:55;102480.44;;;8.91;100.00
54042;BME280;41156;51.508;5.406;2024-01-30T08:21:57;102477.56;;;8.92;100.00
54042;BME280;41156;51.508;5.406;2024-01-30T08:24:57;102478.44;;;8.93;100.00
54042;BME280;41156;51.508;5.406;2024-01-30T08:27:58;102483.31;;;8.97;100.00
54042;BME280;41156;51.508;5.406;2024-01-30T08:30:58;102490.59;;;9.05;100.00
54042;BME280;41156;51.508;5.406;2024-01-30T08:33:58;102483.69;;;9.11;100.00
54042;BME280;41156;51.508;5.406;2024-01-30T08:36:59;102484.41;;;9.21;100.00
54042;BME280;41156;51.508;5.406;2024-01-30T08:39:59;102481.19;;;9.25;100.00
54042;BME280;41156;51.508;5.406;2024-01-30T08:43:00;102485.09;;;9.31;100.00
54042;BME280;41156;51.508;5.406;2024-01-30T08:46:00;102478.19;;;9.37;100.00
54042;BME280;41156;51.508;5.406;2024-01-30T08:49:01;102484.75;;;9.42;100.00
54042;BME280;41156;51.508;5.406;2024-01-30T08:52:01;102483.25;;;9.48;100.00
54042;BME280;41156;51.508;5.406;2024-01-30T08:55:01;102488.00;;;9.54;100.00
54042;BME280;41156;51.508;5.406;2024-01-30T08:58:01;102476.50;;;9.60;100.00
54042;BME280;41156;51.508;5.406;2024-01-30T09:01:04;102479.53;;;9.66;100.00
54042;BME280;41156;51.508;5.406;2024-01-30T09:04:05;102487.13;;;9.70;100.00
54042;BME280;41156;51.508;5.406;2024-01-30T09:07:06;102487.31;;;9.77;100.00
54042;BME280;41156;51.508;5.406;2024-01-30T09:10:08;102487.81;;;9.80;100.00
54042;BME280;41156;51.508;5.406;2024-01-30T09:13:09;102483.94;;;9.83;100.00
54042;BME280;41156;51.508;5.406;2024-01-30T09:16:09;102482.41;;;9.89;100.00
54042;BME280;41156;51.508;5.406;2024-01-30T09:19:09;102497.09;;;9.94;100.00
54042;BME280;41156;51.508;5.406;2024-01-30T09:22:09;102493.84;;;9.99;100.00
54042;BME280;41156;51.508;5.406;2024-01-30T09:25:10;102501.63;;;10.02;100.00
54042;BME280;41156;51.508;5.406;2024-01-30T09:28:10;102500.94;;;10.08;100.00
54042;BME280;41156;51.508;5.406;2024-01-30T09:31:11;102506.50;;;10.15;100.00
54042;BME280;41156;51.508;5.406;2024-01-30T09:34:13;102501.44;;;10.20;100.00
54042;BME280;41156;51.508;5.406;2024-01-30T09:37:13;102507.81;;;10.27;100.00
54042;BME280;41156;51.508;5.406;2024-01-30T09:40:15;102517.16;;;10.33;100.00
54042;BME280;41156;51.508;5.406;2024-01-30T09:43:22;102522.53;;;10.41;100.00
54042;BME280;41156;51.508;5.406;2024-01-30T09:46:26;102509.84;;;10.50;100.00
54042;BME280;41156;51.508;5.406;2024-01-30T09:49:27;102530.78;;;10.56;100.00
54042;BME280;41156;51.508;5.406;2024-01-30T09:52:28;102523.81;;;10.62;100.00
54042;BME280;41156;51.508;5.406;2024-01-30T09:55:28;102524.31;;;10.65;100.00
54042;BME280;41156;51.508;5.406;2024-01-30T09:58:29;102527.34;;;10.70;100.00
54042;BME280;41156;51.508;5.406;2024-01-30T10:01:29;102519.91;;;10.72;100.00
54042;BME280;41156;51.508;5.406;2024-01-30T10:04:30;102522.41;;;10.74;100.00
54042;BME280;41156;51.508;5.406;2024-01-30T10:07:30;102523.28;;;10.74;100.00
54042;BME280;41156;51.508;5.406;2024-01-30T10:10:31;102528.03;;;10.72;100.00
54042;BME280;41156;51.508;5.406;2024-01-30T10:13:31;102525.50;;;10.71;100.00
54042;BME280;41156;51.508;5.406;2024-01-30T10:16:31;102532.75;;;10.70;100.00
54042;BME280;41156;51.508;5.406;2024-01-30T10:19:32;102534.63;;;10.70;100.00
54042;BME280;41156;51.508;5.406;2024-01-30T10:22:32;102536.13;;;10.72;100.00
54042;BME280;41156;51.508;5.406;2024-01-30T10:25:32;102529.34;;;10.77;100.00
54042;BME280;41156;51.508;5.406;2024-01-30T10:28:33;102541.84;;;10.86;100.00
54042;BME280;41156;51.508;5.406;2024-01-30T10:31:33;102546.53;;;10.92;100.00
54042;BME280;41156;51.508;5.406;2024-01-30T10:34:34;102553.78;;;11.00;100.00
54042;BME280;41156;51.508;5.406;2024-01-30T10:37:34;102554.06;;;11.05;100.00
54042;BME280;41156;51.508;5.406;2024-01-30T10:40:35;102546.09;;;11.11;100.00
54042;BME280;41156;51.508;5.406;2024-01-30T10:43:41;102543.41;;;11.11;100.00
54042;BME280;41156;51.508;5.406;2024-01-30T10:46:42;102554.22;;;11.11;100.00
54042;BME280;41156;51.508;5.406;2024-01-30T10:49:45;102554.19;;;11.20;100.00
54042;BME280;41156;51.508;5.406;2024-01-30T10:52:47;102555.16;;;11.27;100.00
54042;BME280;41156;51.508;5.406;2024-01-30T10:55:48;102544.97;;;11.29;100.00
54042;BME280;41156;51.508;5.406;2024-01-30T10:58:52;102549.34;;;11.38;100.00
54042;BME280;41156;51.508;5.406;2024-01-30T11:01:53;102553.56;;;11.41;100.00
54042;BME280;41156;51.508;5.406;2024-01-30T11:04:58;102546.63;;;11.38;100.00
54042;BME280;41156;51.508;5.406;2024-01-30T11:08:10;102546.97;;;11.35;100.00
54042;BME280;41156;51.508;5.406;2024-01-30T11:11:11;102555.63;;;11.30;100.00
54042;BME280;41156;51.508;5.406;2024-01-30T11:14:11;102566.50;;;11.22;100.00
54042;BME280;41156;51.508;5.406;2024-01-30T11:17:12;102558.25;;;11.16;100.00
54042;BME280;41156;51.508;5.406;2024-01-30T11:20:21;102549.63;;;11.12;100.00
54042;BME280;41156;51.508;5.406;2024-01-30T11:23:22;102556.94;;;11.11;100.00
54042;BME280;41156;51.508;5.406;2024-01-30T11:26:28;102547.63;;;11.14;100.00
54042;BME280;41156;51.508;5.406;2024-01-30T11:29:29;102560.25;;;11.22;100.00
54042;BME280;41156;51.508;5.406;2024-01-30T11:32:29;102554.63;;;11.32;100.00
54042;BME280;41156;51.508;5.406;2024-01-30T11:35:40;102550.69;;;11.42;100.00
54042;BME280;41156;51.508;5.406;2024-01-30T11:38:41;102550.06;;;11.55;100.00
54042;BME280;41156;51.508;5.406;2024-01-30T11:41:45;102558.97;;;11.64;100.00
54042;BME280;41156;51.508;5.406;2024-01-30T11:44:49;102557.25;;;11.71;100.00
54042;BME280;41156;51.508;5.406;2024-01-30T11:47:49;102557.38;;;11.78;100.00
54042;BME280;41156;51.508;5.406;2024-01-30T11:50:49;102564.28;;;11.80;100.00
54042;BME280;41156;51.508;5.406;2024-01-30T11:53:51;102549.91;;;11.80;100.00
54042;BME280;41156;51.508;5.406;2024-01-30T11:56:52;102560.84;;;11.87;100.00
54042;BME280;41156;51.508;5.406;2024-01-30T11:59:52;102563.56;;;11.87;100.00
54042;BME280;41156;51.508;5.406;2024-01-30T12:02:54;102551.72;;;11.88;100.00
54042;BME280;41156;51.508;5.406;2024-01-30T12:05:58;102555.78;;;11.83;100.00
54042;BME280;41156;51.508;5.406;2024-01-30T12:09:02;102552.44;;;11.81;100.00
54042;BME280;41156;51.508;5.406;2024-01-30T12:12:08;102567.97;;;11.88;100.00
54042;BME280;41156;51.508;5.406;2024-01-30T12:15:12;102563.38;;;11.88;100.00
54042;BME280;41156;51.508;5.406;2024-01-30T12:18:13;102571.03;;;11.84;100.00
54042;BME280;41156;51.508;5.406;2024-01-30T12:21:16;102568.38;;;11.76;100.00
54042;BME280;41156;51.508;5.406;2024-01-30T12:24:17;102574.19;;;11.65;100.00
54042;BME280;41156;51.508;5.406;2024-01-30T12:27:17;102579.97;;;11.62;100.00
54042;BME280;41156;51.508;5.406;2024-01-30T12:30:19;102581.31;;;11.66;100.00
54042;BME280;41156;51.508;5.406;2024-01-30T12:33:20;102598.94;;;11.62;100.00
54042;BME280;41156;51.508;5.406;2024-01-30T12:36:23;102599.53;;;11.49;100.00
54042;BME280;41156;51.508;5.406;2024-01-30T12:39:24;102608.03;;;11.38;100.00
54042;BME280;41156;51.508;5.406;2024-01-30T12:42:26;102596.34;;;11.37;100.00
54042;BME280;41156;51.508;5.406;2024-01-30T12:45:27;102598.06;;;11.38;100.00
54042;BME280;41156;51.508;5.406;2024-01-30T12:48:28;102598.88;;;11.39;100.00
54042;BME280;41156;51.508;5.406;2024-01-30T12:51:29;102617.53;;;11.34;100.00
54042;BME280;41156;51.508;5.406;2024-01-30T12:54:30;102617.88;;;11.30;100.00
54042;BME280;41156;51.508;5.406;2024-01-30T12:57:30;102617.22;;;11.28;100.00
54042;BME280;41156;51.508;5.406;2024-01-30T13:00:30;102614.84;;;11.25;100.00
54042;BME280;41156;51.508;5.406;2024-01-30T13:03:31;102617.06;;;11.22;100.00
54042;BME280;41156;51.508;5.406;2024-01-30T13:06:31;102621.16;;;11.18;100.00
54042;BME280;41156;51.508;5.406;2024-01-30T13:09:32;102622.53;;;11.14;100.00
54042;BME280;41156;51.508;5.406;2024-01-30T13:12:32;102626.09;;;11.14;100.00
54042;BME280;41156;51.508;5.406;2024-01-30T13:15:33;102618.81;;;11.15;100.00
54042;BME280;41156;51.508;5.406;2024-01-30T13:18:34;102621.50;;;11.15;100.00
54042;BME280;41156;51.508;5.406;2024-01-30T13:21:34;102635.53;;;11.18;100.00
54042;BME280;41156;51.508;5.406;2024-01-30T13:24:35;102644.34;;;11.12;100.00
54042;BME280;41156;51.508;5.406;2024-01-30T13:27:36;102637.59;;;11.08;100.00
54042;BME280;41156;51.508;5.406;2024-01-30T13:30:37;102650.28;;;11.07;100.00
54042;BME280;41156;51.508;5.406;2024-01-30T13:33:37;102642.88;;;11.01;100.00
54042;BME280;41156;51.508;5.406;2024-01-30T13:36:38;102647.94;;;11.04;100.00
54042;BME280;41156;51.508;5.406;2024-01-30T13:39:38;102655.00;;;11.05;100.00
54042;BME280;41156;51.508;5.406;2024-01-30T13:42:39;102643.53;;;11.03;100.00
54042;BME280;41156;51.508;5.406;2024-01-30T13:45:40;102646.06;;;11.05;100.00
54042;BME280;41156;51.508;5.406;2024-01-30T13:48:42;102643.19;;;11.06;100.00
54042;BME280;41156;51.508;5.406;2024-01-30T13:51:42;102639.97;;;11.03;100.00
54042;BME280;41156;51.508;5.406;2024-01-30T13:54:43;102650.31;;;10.99;100.00
54042;BME280;41156;51.508;5.406;2024-01-30T13:57:43;102649.13;;;10.93;100.00
54042;BME280;41156;51.508;5.406;2024-01-30T14:00:43;102651.34;;;10.90;100.00
54042;BME280;41156;51.508;5.406;2024-01-30T14:03:44;102642.41;;;10.81;100.00
54042;BME280;41156;51.508;5.406;2024-01-30T14:06:44;102655.78;;;10.74;100.00
54042;BME280;41156;51.508;5.406;2024-01-30T14:09:45;102664.56;;;10.68;100.00
54042;BME280;41156;51.508;5.406;2024-01-30T14:12:45;102674.88;;;10.65;100.00
54042;BME280;41156;51.508;5.406;2024-01-30T14:15:48;102682.66;;;10.60;100.00
54042;BME280;41156;51.508;5.406;2024-01-30T14:18:50;102681.28;;;10.55;100.00
54042;BME280;41156;51.508;5.406;2024-01-30T14:21:50;102685.88;;;10.47;100.00
54042;BME280;41156;51.508;5.406;2024-01-30T14:24:50;102683.81;;;10.41;100.00
54042;BME280;41156;51.508;5.406;2024-01-30T14:27:51;102683.97;;;10.31;100.00
54042;BME280;41156;51.508;5.406;2024-01-30T14:30:52;102689.53;;;10.21;100.00
54042;BME280;41156;51.508;5.406;2024-01-30T14:33:52;102696.25;;;10.09;100.00
54042;BME280;41156;51.508;5.406;2024-01-30T14:36:52;102711.44;;;10.02;100.00
54042;BME280;41156;51.508;5.406;2024-01-30T14:39:53;102706.03;;;9.93;100.00
54042;BME280;41156;51.508;5.406;2024-01-30T14:42:54;102721.03;;;9.88;100.00
54042;BME280;41156;51.508;5.406;2024-01-30T14:45:55;102717.28;;;9.80;100.00
54042;BME280;41156;51.508;5.406;2024-01-30T14:48:55;102723.22;;;9.76;100.00
54042;BME280;41156;51.508;5.406;2024-01-30T14:51:58;102735.47;;;9.70;100.00
54042;BME280;41156;51.508;5.406;2024-01-30T14:55:00;102751.81;;;9.60;100.00
54042;BME280;41156;51.508;5.406;2024-01-30T14:58:01;102740.41;;;9.40;100.00
54042;BME280;41156;51.508;5.406;2024-01-30T15:01:02;102752.34;;;9.30;100.00
54042;BME280;41156;51.508;5.406;2024-01-30T15:04:03;102757.94;;;9.10;100.00
54042;BME280;41156;51.508;5.406;2024-01-30T15:07:03;102761.56;;;9.01;100.00
54042;BME280;41156;51.508;5.406;2024-01-30T15:10:04;102763.34;;;8.92;100.00
54042;BME280;41156;51.508;5.406;2024-01-30T15:13:04;102770.25;;;8.86;100.00
54042;BME280;41156;51.508;5.406;2024-01-30T15:16:05;102771.38;;;8.84;100.00
54042;BME280;41156;51.508;5.406;2024-01-30T15:19:05;102777.09;;;8.81;100.00
54042;BME280;41156;51.508;5.406;2024-01-30T15:22:06;102785.34;;;8.79;100.00
54042;BME280;41156;51.508;5.406;2024-01-30T15:25:06;102783.50;;;8.80;100.00
54042;BME280;41156;51.508;5.406;2024-01-30T15:28:06;102785.34;;;8.79;100.00
54042;BME280;41156;51.508;5.406;2024-01-30T15:31:07;102780.66;;;8.81;100.00
54042;BME280;41156;51.508;5.406;2024-01-30T15:34:07;102792.78;;;8.85;100.00
54042;BME280;41156;51.508;5.406;2024-01-30T15:37:07;102786.56;;;8.85;100.00
54042;BME280;41156;51.508;5.406;2024-01-30T15:40:08;102789.25;;;8.85;100.00
54042;BME280;41156;51.508;5.406;2024-01-30T15:43:11;102800.88;;;8.85;100.00